Time;durP1;ratioP1;P1;durP2;ratioP2;P2;SDS_P1;SDS_P2;PMS_P1;PMS_P2;Temp;Humidity;BMP_temperature;BMP_pressure;BME280_temperature;BME280_humidity;BME280_pressure;Samples;Min_cycle;Max_cycle;Signal;HPM_P1;HPM_P2
2021/04/25 00:02:01;;;;;;;12.20;7.05;;;7.10;89.00;;;;;;4971917;28;20045;-37
2021/04/25 00:04:27;;;;;;;13.73;6.82;;;7.10;88.90;;;;;;4984324;28;20034;-39
2021/04/25 00:06:52;;;;;;;17.98;7.20;;;7.10;89.10;;;;;;4970978;28;20100;-38
2021/04/25 00:09:20;;;;;;;12.23;6.90;;;7.10;89.00;;;;;;4984594;28;20140;-40
2021/04/25 00:11:49;;;;;;;12.68;6.68;;;7.10;88.90;;;;;;4975405;28;20032;-37
2021/04/25 00:14:15;;;;;;;10.40;6.35;;;7.10;89.10;;;;;;4981342;28;20027;-38
2021/04/25 00:16:41;;;;;;;12.98;6.43;;;7.10;89.00;;;;;;4977816;28;20198;-38
2021/04/25 00:19:07;;;;;;;11.75;6.57;;;7.10;89.10;;;;;;4979295;28;20238;-38
2021/04/25 00:21:32;;;;;;;13.40;6.13;;;7.10;89.00;;;;;;4979390;28;20030;-38
2021/04/25 00:23:59;;;;;;;9.25;6.15;;;7.10;88.90;;;;;;4976209;28;20403;-39
2021/04/25 00:26:25;;;;;;;13.13;6.82;;;7.20;89.00;;;;;;4981891;28;20638;-38
2021/04/25 00:28:51;;;;;;;10.13;5.97;;;7.20;89.10;;;;;;4974125;28;20026;-38
2021/04/25 00:31:17;;;;;;;10.48;6.18;;;7.20;89.00;;;;;;4983056;28;20737;-33
2021/04/25 00:33:42;;;;;;;9.60;6.55;;;7.20;88.90;;;;;;4972821;28;20137;-37
2021/04/25 00:36:08;;;;;;;11.68;6.70;;;7.20;88.90;;;;;;4983806;28;20569;-38
2021/04/25 00:38:34;;;;;;;10.25;6.88;;;7.20;88.90;;;;;;4971914;28;20827;-38
2021/04/25 00:40:59;;;;;;;11.30;6.63;;;7.10;88.80;;;;;;4987609;28;20185;-39
2021/04/25 00:43:25;;;;;;;11.27;6.78;;;7.10;88.90;;;;;;4974976;28;20054;-38
2021/04/25 00:45:50;;;;;;;13.75;6.40;;;7.00;89.00;;;;;;4987319;28;20042;-34
2021/04/25 00:48:16;;;;;;;10.65;6.15;;;7.00;89.20;;;;;;4976037;28;20023;-37
2021/04/25 00:50:42;;;;;;;12.27;5.93;;;6.90;89.30;;;;;;4986217;28;20027;-36
2021/04/25 00:53:07;;;;;;;10.23;5.90;;;6.80;89.70;;;;;;4978099;28;20119;-33
2021/04/25 00:55:34;;;;;;;8.90;5.57;;;6.70;90.00;;;;;;4983749;28;20426;-38
2021/04/25 00:58:02;;;;;;;8.57;5.15;;;6.60;90.00;;;;;;4980828;28;20046;-39
2021/04/25 01:00:30;;;;;;;10.88;5.18;;;6.50;90.10;;;;;;4981484;28;20113;-38
2021/04/25 01:02:56;;;;;;;7.65;4.75;;;6.40;90.10;;;;;;4982405;28;20023;-33
2021/04/25 01:05:23;;;;;;;6.32;4.38;;;6.30;90.20;;;;;;4979340;28;20053;-34
2021/04/25 01:07:49;;;;;;;9.25;5.60;;;6.30;90.20;;;;;;4969957;28;20322;-38
2021/04/25 01:10:16;;;;;;;10.98;6.28;;;6.30;90.20;;;;;;4977616;28;20571;-36
2021/04/25 01:12:43;;;;;;;10.30;6.07;;;6.30;90.40;;;;;;4968803;28;20155;-39
2021/04/25 01:15:10;;;;;;;12.10;6.20;;;6.20;90.40;;;;;;4978607;28;20027;-36
2021/04/25 01:17:39;;;;;;;11.20;5.90;;;6.30;90.60;;;;;;4968076;28;20388;-37
2021/04/25 01:20:07;;;;;;;9.15;6.00;;;6.20;90.60;;;;;;4967214;28;20030;-36
2021/04/25 01:22:33;;;;;;;8.13;5.50;;;6.20;90.60;;;;;;4967587;28;20533;-36
2021/04/25 01:24:58;;;;;;;8.60;5.47;;;6.20;90.60;;;;;;4979337;28;20296;-38
2021/04/25 01:27:27;;;;;;;10.07;5.93;;;6.20;90.70;;;;;;4967602;28;20065;-38
2021/04/25 01:29:52;;;;;;;9.13;5.47;;;6.20;90.60;;;;;;4979130;28;20056;-38
2021/04/25 01:32:18;;;;;;;11.52;5.63;;;6.20;90.60;;;;;;4967612;28;20408;-37
2021/04/25 01:34:43;;;;;;;11.63;5.78;;;6.10;90.60;;;;;;4977733;28;20475;-36
2021/04/25 01:37:09;;;;;;;9.50;5.00;;;6.10;90.90;;;;;;4968801;28;20347;-38
2021/04/25 01:39:34;;;;;;;11.63;5.85;;;6.00;90.60;;;;;;4975061;28;20418;-37
2021/04/25 01:42:00;;;;;;;7.45;4.85;;;6.00;90.60;;;;;;4971652;28;20035;-38
2021/04/25 01:44:26;;;;;;;8.25;4.75;;;5.90;90.60;;;;;;4971905;28;20049;-37
2021/04/25 01:46:52;;;;;;;7.25;5.18;;;5.90;90.60;;;;;;4973890;28;20042;-38
2021/04/25 01:49:18;;;;;;;8.07;4.70;;;5.80;90.60;;;;;;4969663;28;20027;-37
2021/04/25 01:51:44;;;;;;;9.73;5.13;;;5.80;90.60;;;;;;4975495;28;20034;-37
2021/04/25 01:54:10;;;;;;;9.65;5.05;;;5.80;90.60;;;;;;4968074;28;20026;-37
2021/04/25 01:56:36;;;;;;;9.02;4.72;;;5.80;90.60;;;;;;4977655;28;20213;-36
2021/04/25 01:59:02;;;;;;;8.55;4.90;;;5.70;90.60;;;;;;4968082;28;20205;-39
2021/04/25 02:01:28;;;;;;;8.38;4.65;;;5.70;90.50;;;;;;4977243;28;20116;-37
2021/04/25 02:03:53;;;;;;;7.50;4.45;;;5.70;90.60;;;;;;4966661;28;20769;-37
2021/04/25 02:06:22;;;;;;;9.25;4.80;;;5.70;90.80;;;;;;4975476;28;20517;-38
2021/04/25 02:08:48;;;;;;;11.18;5.13;;;5.70;90.50;;;;;;4966095;28;20483;-38
2021/04/25 02:11:13;;;;;;;8.63;4.97;;;5.70;90.50;;;;;;4978813;28;20477;-37
2021/04/25 02:13:39;;;;;;;8.55;4.75;;;5.60;90.50;;;;;;4966221;28;20027;-38
2021/04/25 02:16:05;;;;;;;6.75;4.38;;;5.60;90.40;;;;;;4976491;28;20031;-38
2021/04/25 02:18:32;;;;;;;7.95;4.72;;;5.60;90.40;;;;;;4968465;28;20037;-35
2021/04/25 02:20:58;;;;;;;9.63;5.10;;;5.60;90.40;;;;;;4973722;28;20450;-38
2021/04/25 02:23:24;;;;;;;8.52;4.60;;;5.60;90.40;;;;;;4970967;28;20491;-38
2021/04/25 02:25:52;;;;;;;9.63;4.65;;;5.60;90.40;;;;;;4971217;28;20073;-35
2021/04/25 02:28:21;;;;;;;10.73;5.32;;;5.60;90.40;;;;;;4973072;28;20106;-38
2021/04/25 02:30:46;;;;;;;8.73;4.97;;;5.50;90.30;;;;;;4969461;28;20042;-37
2021/04/25 02:33:13;;;;;;;9.57;4.70;;;5.50;90.30;;;;;;4974677;28;20038;-39
2021/04/25 02:35:39;;;;;;;7.35;4.80;;;5.50;90.30;;;;;;4967553;28;20471;-38
2021/04/25 02:38:04;;;;;;;7.88;4.40;;;5.40;90.30;;;;;;4977167;28;20475;-39
2021/04/25 02:40:32;;;;;;;8.25;4.32;;;5.40;90.30;;;;;;4966933;28;20023;-35
2021/04/25 02:42:59;;;;;;;14.93;5.25;;;5.40;90.30;;;;;;4976405;28;20057;-39
2021/04/25 02:45:26;;;;;;;7.05;3.92;;;5.50;90.20;;;;;;4966331;28;20094;-38
2021/04/25 02:48:03;;;;;;;8.23;4.40;;;5.50;90.10;;;;;;4979989;28;20046;-35
2021/04/25 02:50:34;;;;;;;7.15;3.67;;;5.50;90.10;;;;;;4966427;28;20023;-38
2021/04/25 02:53:00;;;;;;;6.25;3.70;;;5.50;90.00;;;;;;4973322;28;20026;-36
2021/04/25 02:55:26;;;;;;;6.68;4.20;;;5.50;90.00;;;;;;4984850;28;20377;-39
2021/04/25 02:57:52;;;;;;;5.53;3.35;;;5.60;89.90;;;;;;4972994;28;20039;-40
2021/04/25 03:00:21;;;;;;;5.82;3.67;;;5.60;89.80;;;;;;4985927;28;20042;-38
2021/04/25 03:02:46;;;;;;;6.57;3.63;;;5.60;89.70;;;;;;4972602;28;20065;-38
2021/04/25 03:05:13;;;;;;;7.70;3.92;;;5.60;89.60;;;;;;4984529;28;20129;-37
2021/04/25 03:07:39;;;;;;;6.72;3.58;;;5.60;89.40;;;;;;4977415;28;20050;-37
2021/04/25 03:10:07;;;;;;;6.38;3.85;;;5.60;89.40;;;;;;4968383;28;20031;-41
2021/04/25 03:12:36;;;;;;;5.75;3.30;;;5.60;89.40;;;;;;4971725;28;20101;-38
2021/04/25 03:15:04;;;;;;;7.50;3.65;;;5.60;89.30;;;;;;4970849;28;20125;-35
2021/04/25 03:17:29;;;;;;;7.80;3.45;;;5.70;89.30;;;;;;4969773;28;20050;-39
2021/04/25 03:19:55;;;;;;;5.75;3.50;;;5.70;89.20;;;;;;4972934;28;20039;-38
2021/04/25 03:22:20;;;;;;;5.30;3.20;;;5.80;89.10;;;;;;4967241;28;20667;-39
2021/04/25 03:24:46;;;;;;;7.85;3.75;;;5.80;89.00;;;;;;4975001;28;20058;-38
2021/04/25 03:27:11;;;;;;;9.82;3.90;;;5.80;88.80;;;;;;4966872;28;20038;-38
2021/04/25 03:29:37;;;;;;;6.82;3.42;;;5.80;88.30;;;;;;4975727;28;20038;-38
2021/04/25 03:32:03;;;;;;;7.80;3.85;;;5.80;88.50;;;;;;4966138;28;20097;-37
2021/04/25 03:34:30;;;;;;;6.50;3.95;;;5.80;88.40;;;;;;4976436;28;20050;-38
2021/04/25 03:36:55;;;;;;;7.63;4.47;;;5.80;88.40;;;;;;4964654;28;20041;-39
2021/04/25 03:39:21;;;;;;;6.88;3.95;;;5.90;88.30;;;;;;4977281;28;20026;-38
2021/04/25 03:41:46;;;;;;;7.88;4.20;;;5.90;88.10;;;;;;4965188;28;20473;-39
2021/04/25 03:44:14;;;;;;;5.15;3.33;;;5.90;87.80;;;;;;4976628;28;20077;-37
2021/04/25 03:46:40;;;;;;;7.68;3.42;;;5.90;87.70;;;;;;4965547;28;20135;-39
2021/04/25 03:49:06;;;;;;;8.27;4.78;;;5.90;87.70;;;;;;4968987;28;20031;-38
2021/04/25 03:51:31;;;;;;;7.55;4.05;;;6.00;87.60;;;;;;4971510;28;20034;-38
2021/04/25 03:53:57;;;;;;;10.02;4.00;;;6.00;87.50;;;;;;4977432;28;20019;-40
2021/04/25 03:56:24;;;;;;;8.13;3.78;;;6.00;87.40;;;;;;4979736;28;20110;-39
2021/04/25 03:58:49;;;;;;;6.85;4.03;;;6.00;87.30;;;;;;4979317;28;20057;-38
2021/04/25 04:01:15;;;;;;;7.00;4.15;;;6.00;87.10;;;;;;4976805;28;20038;-39
2021/04/25 04:03:40;;;;;;;5.25;3.38;;;6.10;87.10;;;;;;4982759;28;20058;-39
2021/04/25 04:06:06;;;;;;;7.35;3.40;;;6.00;86.90;;;;;;4970638;28;20443;-39
2021/04/25 04:08:31;;;;;;;9.05;4.03;;;6.10;86.90;;;;;;4966204;28;20189;-38
2021/04/25 04:10:57;;;;;;;6.57;3.53;;;6.10;86.90;;;;;;4976165;28;20081;-39
2021/04/25 04:13:22;;;;;;;7.18;3.85;;;6.10;86.80;;;;;;4964551;28;20416;-37
2021/04/25 04:15:48;;;;;;;7.40;3.40;;;6.10;86.70;;;;;;4979756;28;20075;-39
2021/04/25 04:18:14;;;;;;;7.35;3.45;;;6.10;86.50;;;;;;4969308;28;20042;-36
2021/04/25 04:20:39;;;;;;;9.32;3.88;;;6.10;86.40;;;;;;4980130;28;20027;-38
2021/04/25 04:23:07;;;;;;;7.45;3.80;;;6.10;86.00;;;;;;4968617;28;20057;-39
2021/04/25 04:25:33;;;;;;;7.70;3.10;;;6.10;85.90;;;;;;4979160;28;20446;-39
2021/04/25 04:27:58;;;;;;;9.23;3.40;;;6.10;85.90;;;;;;4969160;28;20049;-39
2021/04/25 04:30:25;;;;;;;5.07;3.22;;;6.10;85.70;;;;;;4977200;28;20057;-38
2021/04/25 04:32:50;;;;;;;5.97;3.90;;;6.10;85.70;;;;;;4971735;28;20820;-40
2021/04/25 04:35:16;;;;;;;6.47;2.60;;;6.10;85.70;;;;;;4974690;28;20080;-39
2021/04/25 04:37:41;;;;;;;8.20;2.80;;;6.20;85.60;;;;;;4974048;28;20031;-40
2021/04/25 04:40:08;;;;;;;7.32;2.78;;;6.20;85.20;;;;;;4971600;28;20087;-36
2021/04/25 04:42:33;;;;;;;7.53;2.30;;;6.20;85.10;;;;;;4976589;28;20058;-38
2021/04/25 04:44:59;;;;;;;7.82;2.20;;;6.20;84.90;;;;;;4969506;28;20487;-38
2021/04/25 04:47:27;;;;;;;7.85;2.63;;;6.20;84.90;;;;;;4968098;28;20680;-39
2021/04/25 04:49:53;;;;;;;7.43;2.67;;;6.30;84.70;;;;;;4969874;28;20090;-36
2021/04/25 04:52:21;;;;;;;6.68;2.30;;;6.30;84.50;;;;;;4976814;28;20484;-38
2021/04/25 04:54:46;;;;;;;7.75;2.50;;;6.30;84.50;;;;;;4986717;28;20057;-38
2021/04/25 04:57:15;;;;;;;6.72;2.40;;;6.30;84.40;;;;;;4976312;28;20436;-37
2021/04/25 04:59:41;;;;;;;6.30;2.08;;;6.30;84.30;;;;;;4987729;28;20148;-38
2021/04/25 05:02:06;;;;;;;6.07;2.70;;;6.40;84.30;;;;;;4973785;28;20110;-37
2021/04/25 05:04:32;;;;;;;6.30;2.25;;;6.40;84.20;;;;;;4987410;28;20456;-38
2021/04/25 05:06:57;;;;;;;8.40;2.55;;;6.40;84.20;;;;;;4984695;28;20351;-35
2021/04/25 05:09:23;;;;;;;9.75;2.33;;;6.40;84.10;;;;;;4987609;28;20143;-38
2021/04/25 05:11:48;;;;;;;5.15;2.25;;;6.40;84.20;;;;;;4980164;28;20094;-35
2021/04/25 05:14:14;;;;;;;7.60;2.72;;;6.40;84.00;;;;;;4971033;28;20030;-36
2021/04/25 05:16:39;;;;;;;5.00;2.78;;;6.40;83.80;;;;;;4973825;28;20037;-38
2021/04/25 05:19:05;;;;;;;5.00;2.30;;;6.40;83.70;;;;;;4973548;28;20037;-37
2021/04/25 05:21:31;;;;;;;6.43;2.35;;;6.40;83.60;;;;;;4971374;28;20023;-36
2021/04/25 05:23:56;;;;;;;6.55;3.17;;;6.40;83.50;;;;;;4975541;28;20026;-34
2021/04/25 05:26:22;;;;;;;7.90;2.97;;;6.50;83.40;;;;;;4968783;28;20030;-36
2021/04/25 05:28:47;;;;;;;7.57;2.50;;;6.50;83.40;;;;;;4977382;28;20050;-33
2021/04/25 05:31:13;;;;;;;4.68;2.35;;;6.50;83.30;;;;;;4969069;28;20135;-37
2021/04/25 05:33:38;;;;;;;5.65;2.60;;;6.50;83.30;;;;;;4978621;28;20391;-39
2021/04/25 05:36:04;;;;;;;6.75;2.38;;;6.60;83.20;;;;;;4967153;28;20046;-36
2021/04/25 05:38:30;;;;;;;13.13;2.92;;;6.60;83.10;;;;;;4979310;28;20018;-36
2021/04/25 05:40:55;;;;;;;9.55;3.00;;;6.60;82.90;;;;;;4967232;28;20102;-38
2021/04/25 05:43:21;;;;;;;6.82;2.45;;;6.60;82.70;;;;;;4979390;28;20023;-35
2021/04/25 05:45:46;;;;;;;13.15;3.75;;;6.60;82.70;;;;;;4967692;28;20121;-33
2021/04/25 05:48:12;;;;;;;6.28;3.10;;;6.60;82.40;;;;;;4978026;28;20033;-36
2021/04/25 05:50:37;;;;;;;6.80;2.63;;;6.70;82.40;;;;;;4968335;28;20388;-34
2021/04/25 05:53:03;;;;;;;10.10;3.20;;;6.70;82.10;;;;;;4974355;28;20121;-38
2021/04/25 05:55:29;;;;;;;7.47;2.75;;;6.70;81.80;;;;;;4971747;28;20121;-39
2021/04/25 05:57:55;;;;;;;6.50;2.70;;;6.70;81.40;;;;;;4971985;28;20046;-37
2021/04/25 06:00:28;;;;;;;10.40;2.97;;;6.70;81.70;;;;;;4973724;28;20126;-37
2021/04/25 06:02:53;;;;;;;6.43;2.35;;;6.80;81.30;;;;;;4970933;28;20126;-35
2021/04/25 06:05:19;;;;;;;7.43;2.70;;;6.80;81.20;;;;;;4974754;28;20060;-38
2021/04/25 06:07:45;;;;;;;5.82;2.35;;;6.90;81.20;;;;;;4979786;28;20054;-38
2021/04/25 06:10:12;;;;;;;7.75;2.88;;;6.90;81.20;;;;;;4975560;28;20118;-39
2021/04/25 06:12:38;;;;;;;8.73;3.00;;;6.90;80.60;;;;;;4984380;28;20022;-39
2021/04/25 06:15:05;;;;;;;7.95;3.15;;;7.00;81.00;;;;;;4975221;28;20025;-37
2021/04/25 06:17:32;;;;;;;6.68;3.03;;;7.00;81.20;;;;;;4985201;28;20022;-39
2021/04/25 06:20:00;;;;;;;7.63;2.75;;;7.00;80.40;;;;;;4973942;28;20080;-39
2021/04/25 06:22:25;;;;;;;8.65;2.63;;;7.00;80.60;;;;;;4985983;28;20026;-37
2021/04/25 06:24:54;;;;;;;5.30;2.75;;;7.10;80.60;;;;;;4973158;28;20027;-37
2021/04/25 06:27:22;;;;;;;6.60;2.70;;;7.10;80.50;;;;;;4986152;28;20076;-39
2021/04/25 06:29:47;;;;;;;8.65;2.60;;;7.10;80.00;;;;;;4972999;28;20102;-37
2021/04/25 06:32:13;;;;;;;12.48;3.13;;;7.10;80.10;;;;;;4985959;28;20105;-37
2021/04/25 06:34:38;;;;;;;8.35;2.60;;;7.10;80.10;;;;;;4975642;28;20038;-38
2021/04/25 06:37:04;;;;;;;7.75;2.75;;;7.10;80.20;;;;;;4982545;28;20042;-37
2021/04/25 06:39:32;;;;;;;7.78;2.95;;;7.20;80.20;;;;;;4978177;28;20023;-37
2021/04/25 06:41:58;;;;;;;10.30;2.55;;;7.20;80.00;;;;;;4981049;28;20355;-36
2021/04/25 06:44:26;;;;;;;9.23;2.60;;;7.20;80.00;;;;;;4981066;28;20062;-38
2021/04/25 06:46:52;;;;;;;8.15;2.70;;;7.20;80.10;;;;;;4978424;28;20064;-38
2021/04/25 06:49:18;;;;;;;8.52;3.35;;;7.30;80.10;;;;;;4983332;28;20033;-39
2021/04/25 06:51:44;;;;;;;8.90;2.95;;;7.40;79.60;;;;;;4976460;28;20034;-35
2021/04/25 06:54:09;;;;;;;7.93;2.90;;;7.40;79.80;;;;;;4983685;28;20110;-39
2021/04/25 06:56:35;;;;;;;7.60;2.38;;;7.40;79.30;;;;;;4975160;28;20037;-35
2021/04/25 06:59:00;;;;;;;12.77;2.80;;;7.40;79.20;;;;;;4983918;28;20026;-36
2021/04/25 07:01:26;;;;;;;7.28;2.78;;;7.40;79.40;;;;;;4973613;28;20018;-36
2021/04/25 07:03:51;;;;;;;7.30;2.60;;;7.40;79.50;;;;;;4985560;28;20501;-39
2021/04/25 07:06:17;;;;;;;11.30;3.40;;;7.50;79.40;;;;;;4973076;28;20408;-38
2021/04/25 07:08:45;;;;;;;5.53;2.70;;;7.50;79.30;;;;;;4984255;28;20077;-38
2021/04/25 07:11:10;;;;;;;6.72;2.13;;;7.50;79.50;;;;;;4972934;28;20339;-39
2021/04/25 07:13:36;;;;;;;8.70;2.65;;;7.50;79.30;;;;;;4985323;28;20049;-38
2021/04/25 07:16:02;;;;;;;7.78;1.98;;;7.60;79.30;;;;;;4975050;28;20125;-39
2021/04/25 07:18:27;;;;;;;9.73;2.25;;;7.60;79.40;;;;;;4982771;28;20052;-39
2021/04/25 07:20:55;;;;;;;7.15;2.20;;;7.60;79.50;;;;;;4978099;28;20061;-38
2021/04/25 07:23:22;;;;;;;7.55;1.90;;;7.70;79.10;;;;;;4980252;28;20026;-38
2021/04/25 07:25:48;;;;;;;8.05;2.00;;;7.70;79.20;;;;;;4979897;28;20026;-39
2021/04/25 07:28:13;;;;;;;6.15;1.90;;;7.80;79.10;;;;;;4977918;28;20045;-39
2021/04/25 07:30:47;;;;;;;10.00;2.20;;;7.90;78.40;;;;;;4981747;28;20022;-36
2021/04/25 07:33:13;;;;;;;7.55;2.00;;;7.90;78.10;;;;;;4976973;28;20484;-34
2021/04/25 07:35:39;;;;;;;7.35;1.92;;;7.90;78.00;;;;;;4983237;28;20126;-38
2021/04/25 07:38:04;;;;;;;10.77;1.80;;;7.90;77.60;;;;;;4974162;28;20035;-36
2021/04/25 07:40:30;;;;;;;6.63;1.80;;;8.00;77.90;;;;;;4983197;28;20129;-38
2021/04/25 07:42:56;;;;;;;6.35;2.28;;;8.00;77.70;;;;;;4973687;28;20057;-34
2021/04/25 07:45:22;;;;;;;3.03;1.67;;;8.00;78.30;;;;;;4985172;28;20036;-38
2021/04/25 07:47:47;;;;;;;5.95;1.67;;;8.00;77.90;;;;;;4971677;28;20099;-38
2021/04/25 07:50:15;;;;;;;11.40;1.95;;;8.10;78.00;;;;;;4981307;28;20069;-39
2021/04/25 07:52:42;;;;;;;7.30;1.67;;;8.20;77.50;;;;;;4974179;28;20570;-38
2021/04/25 07:55:09;;;;;;;7.57;1.75;;;8.30;77.20;;;;;;4989039;28;20030;-36
2021/04/25 07:57:37;;;;;;;6.05;1.85;;;8.30;77.30;;;;;;4984619;28;20065;-36
2021/04/25 08:00:05;;;;;;;11.60;2.25;;;8.40;77.20;;;;;;4970391;28;20038;-36
2021/04/25 08:02:30;;;;;;;10.50;2.30;;;8.40;76.60;;;;;;4975737;28;20414;-37
2021/04/25 08:04:56;;;;;;;6.68;2.25;;;8.40;76.50;;;;;;4971350;28;20610;-38
2021/04/25 08:07:21;;;;;;;5.50;2.15;;;8.40;76.60;;;;;;4971860;28;20053;-35
2021/04/25 08:09:47;;;;;;;6.50;1.60;;;8.50;76.50;;;;;;4970682;28;20450;-37
2021/04/25 08:12:13;;;;;;;6.85;1.88;;;8.40;76.60;;;;;;4972062;28;20049;-37
2021/04/25 08:14:38;;;;;;;4.05;1.60;;;8.50;76.90;;;;;;4976543;28;20201;-39
2021/04/25 08:17:04;;;;;;;8.00;2.08;;;8.50;76.10;;;;;;4969978;28;20057;-38
2021/04/25 08:19:30;;;;;;;9.27;2.08;;;8.50;75.60;;;;;;4987169;28;20025;-39
2021/04/25 08:21:55;;;;;;;7.75;2.08;;;8.60;75.80;;;;;;4986716;28;20470;-39
2021/04/25 08:24:24;;;;;;;10.02;2.17;;;8.60;75.20;;;;;;4982712;28;20531;-37
2021/04/25 08:26:54;;;;;;;8.10;1.73;;;8.60;74.70;;;;;;4967933;28;20185;-38
2021/04/25 08:29:19;;;;;;;8.20;1.65;;;8.60;74.60;;;;;;4980412;28;20200;-39
2021/04/25 08:31:45;;;;;;;5.75;1.63;;;8.60;74.70;;;;;;4968174;28;20031;-39
2021/04/25 08:34:10;;;;;;;10.02;1.73;;;8.70;74.40;;;;;;4980006;28;20708;-39
2021/04/25 08:36:36;;;;;;;8.88;1.92;;;8.70;74.50;;;;;;4968687;28;20022;-37
2021/04/25 08:39:03;;;;;;;5.82;1.38;;;8.80;74.30;;;;;;4978799;28;20614;-39
2021/04/25 08:41:30;;;;;;;5.20;1.83;;;8.90;74.00;;;;;;4968754;28;20463;-39
2021/04/25 08:43:56;;;;;;;7.85;2.08;;;9.00;74.00;;;;;;4981228;28;20036;-38
2021/04/25 08:46:27;;;;;;;5.97;1.60;;;9.00;73.30;;;;;;4984679;28;20390;-37
2021/04/25 08:48:53;;;;;;;7.18;1.77;;;9.10;73.20;;;;;;4982603;28;20068;-38
2021/04/25 08:51:19;;;;;;;7.10;1.80;;;9.20;73.10;;;;;;4985373;28;20421;-38
2021/04/25 08:53:45;;;;;;;8.85;1.60;;;9.30;72.70;;;;;;4982234;28;20018;-37
2021/04/25 08:56:14;;;;;;;7.90;1.73;;;9.30;72.70;;;;;;4986442;28;20046;-40
2021/04/25 08:58:42;;;;;;;7.05;1.80;;;9.40;72.50;;;;;;4984693;28;20018;-35
2021/04/25 09:01:08;;;;;;;12.07;3.15;;;9.40;72.30;;;;;;4977904;28;20035;-38
2021/04/25 09:03:34;;;;;;;8.25;1.90;;;9.50;71.70;;;;;;4985961;28;20065;-38
2021/04/25 09:06:01;;;;;;;7.85;1.85;;;9.40;71.60;;;;;;4976765;28;20161;-37
2021/04/25 09:08:45;;;;;;;13.07;2.08;;;9.40;71.80;;;;;;4969981;28;20050;-39
2021/04/25 09:11:29;;;;;;;7.40;1.73;;;9.50;71.70;;;;;;4987014;28;20038;-37
2021/04/25 09:14:14;;;;;;;7.32;1.80;;;9.50;71.70;;;;;;4985993;28;20027;-38
2021/04/25 09:16:42;;;;;;;5.15;1.50;;;9.60;71.00;;;;;;4988192;28;20110;-37
2021/04/25 09:19:08;;;;;;;7.45;2.50;;;9.60;71.40;;;;;;4986423;28;20045;-40
2021/04/25 09:21:33;;;;;;;10.13;1.55;;;9.70;71.00;;;;;;4976260;28;20030;-36
2021/04/25 09:24:36;;;;;;;5.53;2.53;;;9.70;71.00;;;;;;4986251;28;20655;-40
2021/04/25 09:27:03;;;;;;;7.13;1.95;;;9.70;70.70;;;;;;4979222;28;20042;-41
2021/04/25 09:29:50;;;;;;;12.05;2.45;;;9.70;70.60;;;;;;4983005;28;20165;-38
2021/04/25 09:32:24;;;;;;;6.10;2.10;;;9.70;69.90;;;;;;4968353;28;20057;-38
2021/04/25 09:34:50;;;;;;;7.32;1.85;;;9.70;70.10;;;;;;4982678;28;20073;-36
2021/04/25 09:37:20;;;;;;;6.25;1.75;;;9.70;70.90;;;;;;4982764;28;20120;-37
2021/04/25 09:40:21;;;;;;;3.47;1.42;;;9.70;70.30;;;;;;4985518;28;20042;-40
2021/04/25 09:43:00;;;;;;;7.55;2.00;;;9.70;70.90;;;;;;4936952;28;20039;-40
2021/04/25 09:45:30;;;;;;;7.65;2.13;;;9.90;70.40;;;;;;4971128;28;20063;-42
2021/04/25 09:47:57;;;;;;;10.38;2.67;;;10.00;70.30;;;;;;4980273;28;20050;-38
2021/04/25 09:50:23;;;;;;;5.85;1.60;;;10.10;69.60;;;;;;4983859;28;20620;-37
2021/04/25 09:52:50;;;;;;;12.38;2.08;;;10.20;69.00;;;;;;4978234;28;20028;-39
2021/04/25 09:55:28;;;;;;;8.90;1.88;;;10.20;69.40;;;;;;4985675;28;20429;-38
2021/04/25 09:58:03;;;;;;;10.98;1.92;;;10.20;68.90;;;;;;4976703;28;20046;-38
2021/04/25 10:00:40;;;;;;;9.32;2.03;;;10.10;68.70;;;;;;4982769;28;20343;-38
2021/04/25 10:03:09;;;;;;;7.47;1.67;;;10.10;69.50;;;;;;4975822;28;20365;-38
2021/04/25 10:05:36;;;;;;;10.25;2.08;;;10.00;68.80;;;;;;4969032;28;20018;-38
2021/04/25 10:08:02;;;;;;;13.63;2.10;;;10.00;68.80;;;;;;4971141;28;20117;-39
2021/04/25 10:10:29;;;;;;;7.95;1.80;;;10.00;69.20;;;;;;4968257;28;20039;-38
2021/04/25 10:12:55;;;;;;;5.15;1.67;;;10.00;68.90;;;;;;4977722;28;20042;-38
2021/04/25 10:15:22;;;;;;;9.35;1.90;;;10.00;68.90;;;;;;4967691;28;20042;-38
2021/04/25 10:17:50;;;;;;;8.70;2.20;;;10.10;69.10;;;;;;4978633;28;20031;-39
2021/04/25 10:20:19;;;;;;;7.63;1.90;;;10.30;69.30;;;;;;4967523;28;20035;-37
2021/04/25 10:22:48;;;;;;;11.30;2.00;;;10.40;68.70;;;;;;4978902;28;20069;-36
2021/04/25 10:25:21;;;;;;;7.43;1.98;;;10.40;67.80;;;;;;4981081;28;20085;-36
2021/04/25 10:27:58;;;;;;;8.57;1.73;;;10.50;67.90;;;;;;4981579;28;20173;-37
2021/04/25 10:30:31;;;;;;;8.23;2.00;;;10.50;67.50;;;;;;4967138;28;20053;-38
2021/04/25 10:32:58;;;;;;;;;;;10.50;67.10;;;;;;4976425;28;20027;-39
2021/04/25 10:35:28;;;;;;;7.43;1.55;;;10.60;67.30;;;;;;4976538;28;19914;-40
2021/04/25 10:37:53;;;;;;;4.95;1.75;;;10.70;67.70;;;;;;4979414;28;20030;-38
2021/04/25 10:40:28;;;;;;;6.70;2.20;;;10.90;67.40;;;;;;4982484;28;20093;-39
2021/04/25 10:43:25;;;;;;;9.13;2.10;;;11.00;67.00;;;;;;4976394;28;20138;-39
2021/04/25 10:45:57;;;;;;;8.27;2.25;;;11.10;66.10;;;;;;4984107;28;20039;-36
2021/04/25 10:48:27;;;;;;;5.60;1.63;;;11.10;66.00;;;;;;4981851;28;20394;-40
2021/04/25 10:50:56;;;;;;;5.90;1.65;;;11.10;65.90;;;;;;4971665;28;20092;-37
2021/04/25 10:53:25;;;;;;;5.82;1.98;;;11.10;66.10;;;;;;4980796;28;20065;-38
2021/04/25 10:56:11;;;;;;;7.72;1.80;;;11.20;65.80;;;;;;4985374;28;20121;-37
2021/04/25 10:58:36;;;;;;;5.25;2.22;;;11.10;66.00;;;;;;4974779;28;20053;-35
2021/04/25 11:01:02;;;;;;;6.78;2.58;;;11.00;65.60;;;;;;4983778;28;20038;-39
2021/04/25 11:03:27;;;;;;;7.22;1.95;;;10.90;66.10;;;;;;4980837;28;20030;-39
2021/04/25 11:05:53;;;;;;;5.18;1.85;;;10.90;66.50;;;;;;4980799;28;20089;-38
2021/04/25 11:08:31;;;;;;;5.40;1.55;;;10.90;66.20;;;;;;4979502;28;20030;-38
2021/04/25 11:11:07;;;;;;;7.50;1.92;;;11.00;66.00;;;;;;4980447;28;20033;-36
2021/04/25 11:13:44;;;;;;;6.50;1.85;;;11.10;65.90;;;;;;4979070;28;20038;-37
2021/04/25 11:16:22;;;;;;;6.90;1.63;;;11.10;65.60;;;;;;4979595;28;20038;-36
2021/04/25 11:19:06;;;;;;;8.10;2.28;;;11.20;65.70;;;;;;4980935;28;20026;-39
2021/04/25 11:21:35;;;;;;;7.95;2.00;;;11.10;65.00;;;;;;4968001;28;20037;-38
2021/04/25 11:24:06;;;;;;;8.50;1.92;;;11.00;65.50;;;;;;4973199;28;20030;-39
2021/04/25 11:26:41;;;;;;;3.65;1.90;;;11.10;65.70;;;;;;4970346;28;20038;-38
2021/04/25 11:29:23;;;;;;;8.93;2.05;;;11.10;65.30;;;;;;4973154;28;20046;-34
2021/04/25 11:31:57;;;;;;;11.00;2.28;;;11.20;65.60;;;;;;4981862;28;20429;-38
2021/04/25 11:34:29;;;;;;;8.73;2.00;;;11.30;65.00;;;;;;4980667;28;20038;-38
2021/04/25 11:37:16;;;;;;;5.28;1.90;;;11.40;65.00;;;;;;4980691;28;20339;-37
2021/04/25 11:39:44;;;;;;;5.90;1.55;;;11.40;64.50;;;;;;4971728;28;20030;-36
2021/04/25 11:42:13;;;;;;;6.25;2.25;;;11.40;64.90;;;;;;4980501;28;20169;-38
2021/04/25 11:44:42;;;;;;;7.60;1.73;;;11.40;64.50;;;;;;4976642;28;20031;-40
2021/04/25 11:47:13;;;;;;;4.97;2.03;;;11.30;64.70;;;;;;4972973;28;20038;-38
2021/04/25 11:49:49;;;;;;;7.70;2.17;;;11.20;64.80;;;;;;4982483;28;20461;-37
2021/04/25 11:52:30;;;;;;;8.88;1.95;;;11.10;64.40;;;;;;4982729;28;20038;-36
2021/04/25 11:54:55;;;;;;;5.13;2.10;;;11.00;64.90;;;;;;4978791;28;20027;-36
2021/04/25 11:57:22;;;;;;;6.07;1.75;;;10.90;65.20;;;;;;4975171;28;20685;-38
2021/04/25 12:00:09;;;;;;;9.27;2.33;;;10.80;65.20;;;;;;4977774;28;20177;-37
2021/04/25 12:02:53;;;;;;;4.82;2.08;;;10.80;65.70;;;;;;4974164;28;20323;-36
2021/04/25 12:05:27;;;;;;;6.38;2.10;;;10.90;65.60;;;;;;4972469;28;20084;-36
2021/04/25 12:08:02;;;;;;;8.05;2.00;;;10.90;65.40;;;;;;4977191;28;20104;-36
2021/04/25 12:10:36;;;;;;;8.18;2.15;;;10.90;65.20;;;;;;4970425;28;20058;-33
2021/04/25 12:13:04;;;;;;;5.75;2.45;;;10.90;64.90;;;;;;4968750;28;20475;-38
2021/04/25 12:15:36;;;;;;;9.43;2.20;;;11.00;65.50;;;;;;4973769;28;20030;-41
2021/04/25 12:18:02;;;;;;;9.80;2.60;;;11.00;65.10;;;;;;4980936;28;20117;-38
2021/04/25 12:20:28;;;;;;;6.47;1.77;;;11.00;64.60;;;;;;4972073;28;20125;-37
2021/04/25 12:22:54;;;;;;;6.25;1.83;;;11.00;64.30;;;;;;4975733;28;20026;-39
2021/04/25 12:25:27;;;;;;;7.13;2.00;;;11.00;64.30;;;;;;4978808;28;20052;-38
2021/04/25 12:27:57;;;;;;;5.80;1.85;;;11.10;64.70;;;;;;4969199;28;20034;-38
2021/04/25 12:30:26;;;;;;;4.70;1.83;;;11.10;64.90;;;;;;4980771;28;20497;-36
2021/04/25 12:33:10;;;;;;;6.18;2.17;;;11.20;64.70;;;;;;4974972;28;20030;-38
2021/04/25 12:35:46;;;;;;;6.47;1.60;;;11.30;64.10;;;;;;4966623;28;21136;-38
2021/04/25 12:38:26;;;;;;;3.90;1.75;;;11.40;64.40;;;;;;4977045;28;20069;-37
2021/04/25 12:40:55;;;;;;;8.30;2.05;;;11.60;63.90;;;;;;4983379;28;20732;-37
2021/04/25 12:43:20;;;;;;;6.15;1.67;;;11.70;63.40;;;;;;4969024;28;20372;-36
2021/04/25 12:45:46;;;;;;;9.43;2.65;;;11.80;63.10;;;;;;4969675;28;20053;-35
2021/04/25 12:48:32;;;;;;;7.97;2.08;;;11.90;64.00;;;;;;4977676;28;20030;-38
2021/04/25 12:51:11;;;;;;;5.32;1.88;;;12.00;63.00;;;;;;4986330;28;20073;-36
2021/04/25 12:53:44;;;;;;;3.47;1.52;;;12.00;62.80;;;;;;4976755;28;20014;-37
2021/04/25 12:56:24;;;;;;;6.30;1.77;;;11.90;62.70;;;;;;4986175;28;20046;-37
2021/04/25 12:59:15;;;;;;;6.03;1.92;;;11.90;63.10;;;;;;4968416;28;20023;-35